Time;durP1;ratioP1;P1;durP2;ratioP2;P2;SDS_P1;SDS_P2;PMS_P1;PMS_P2;Temp;Humidity;BMP_temperature;BMP_pressure;BME280_temperature;BME280_humidity;BME280_pressure;Samples;Min_cycle;Max_cycle;Signal;HPM_P1;HPM_P2
2021/11/15 00:01:58;;;;;;;23.23;15.15;;;;;;;15.53;65.76;101647.19;4861721;29;20053;-93
2021/11/15 00:04:24;;;;;;;26.40;15.65;;;;;;;15.52;65.83;101645.50;4861195;29;20029;-93
2021/11/15 00:06:49;;;;;;;22.42;15.05;;;;;;;15.51;65.65;101641.16;4861512;29;20046;-93
2021/11/15 00:09:15;;;;;;;27.15;16.00;;;;;;;15.49;65.53;101643.06;4861207;29;20067;-92
2021/11/15 00:11:41;;;;;;;25.75;15.13;;;;;;;15.44;65.66;101638.06;4861264;29;20081;-93
2021/11/15 00:14:07;;;;;;;27.95;15.98;;;;;;;15.40;65.61;101639.25;4861362;29;20441;-93
2021/11/15 00:16:32;;;;;;;23.33;15.98;;;;;;;15.43;65.72;101633.75;4861656;29;20041;-93
2021/11/15 00:18:58;;;;;;;20.35;13.30;;;;;;;15.43;65.88;101631.94;4861299;29;20025;-93
2021/11/15 00:21:24;;;;;;;21.42;13.70;;;;;;;15.47;65.43;101635.22;4861299;29;20037;-93
2021/11/15 00:23:50;;;;;;;24.67;15.82;;;;;;;15.42;65.46;101632.03;4861209;29;20033;-92
2021/11/15 00:26:15;;;;;;;23.25;14.57;;;;;;;15.43;65.70;101642.53;4861615;29;20026;-92
2021/11/15 00:28:41;;;;;;;20.33;13.75;;;;;;;15.40;65.60;101648.06;4860361;29;20042;-93
2021/11/15 00:31:07;;;;;;;27.92;16.23;;;;;;;15.39;65.79;101649.00;4861879;29;20520;-93
2021/11/15 00:33:32;;;;;;;22.52;14.93;;;;;;;15.36;66.06;101643.88;4860706;29;20552;-93
2021/11/15 00:35:58;;;;;;;23.08;15.57;;;;;;;15.31;65.78;101646.03;4860569;29;20040;-94
2021/11/15 00:38:23;;;;;;;20.42;14.65;;;;;;;15.34;65.96;101640.50;4861564;29;20481;-93
2021/11/15 00:40:49;;;;;;;24.73;15.10;;;;;;;15.33;66.15;101630.88;4860411;29;20088;-92
2021/11/15 00:43:14;;;;;;;22.27;14.00;;;;;;;15.36;66.00;101633.31;4861343;29;20621;-92
2021/11/15 00:45:40;;;;;;;21.63;14.45;;;;;;;15.37;66.30;101635.00;4860531;29;20029;-92
2021/11/15 00:48:06;;;;;;;23.55;14.73;;;;;;;15.35;65.83;101634.28;4860647;29;20124;-93
2021/11/15 00:50:32;;;;;;;23.38;14.02;;;;;;;15.22;65.35;101626.31;4860382;29;20041;-92
2021/11/15 00:52:58;;;;;;;21.33;13.80;;;;;;;15.32;66.11;101634.47;4861244;29;20052;-92
2021/11/15 00:55:24;;;;;;;23.38;15.00;;;;;;;15.30;65.75;101620.50;4860361;29;20041;-92
2021/11/15 00:57:49;;;;;;;20.33;14.02;;;;;;;15.31;65.95;101627.50;4861002;29;20068;-94
2021/11/15 01:00:21;;;;;;;22.92;13.25;;;;;;;15.34;65.96;101623.78;4859513;29;20044;-92
2021/11/15 01:02:47;;;;;;;24.88;13.88;;;;;;;15.30;65.79;101617.84;4860716;29;20411;-93
2021/11/15 01:05:14;;;;;;;28.02;15.75;;;;;;;15.31;65.64;101624.84;4858918;29;20030;-93
2021/11/15 01:07:39;;;;;;;21.42;13.68;;;;;;;15.30;65.80;101625.78;4860879;29;20043;-93
2021/11/15 01:10:08;;;;;;;20.33;12.98;;;;;;;15.31;65.99;101619.56;4860133;29;20033;-93
2021/11/15 01:12:33;;;;;;;25.85;15.80;;;;;;;15.11;66.39;101617.44;4860574;29;20041;-92
2021/11/15 01:14:59;;;;;;;23.30;14.23;;;;;;;14.95;66.47;101615.81;4860476;29;20343;-94
2021/11/15 01:17:24;;;;;;;26.05;15.25;;;;;;;14.91;67.13;101627.56;4859866;29;20434;-93
2021/11/15 01:19:50;;;;;;;21.13;14.27;;;;;;;14.94;67.50;101622.03;4860603;29;20048;-93
2021/11/15 01:22:15;;;;;;;20.17;14.57;;;;;;;15.17;66.20;101622.31;4860846;29;20116;-94
2021/11/15 01:24:41;;;;;;;23.23;14.38;;;;;;;15.19;66.46;101623.88;4860530;29;20048;-93
2021/11/15 01:27:06;;;;;;;19.30;13.07;;;;;;;15.26;66.51;101624.31;4860497;29;20094;-94
2021/11/15 01:29:32;;;;;;;18.33;13.13;;;;;;;15.30;66.27;101636.38;4860553;29;20527;-94
2021/11/15 01:31:59;;;;;;;24.30;13.40;;;;;;;15.36;66.02;101632.47;4860150;29;20104;-93
2021/11/15 01:34:25;;;;;;;28.35;17.17;;;;;;;15.24;66.26;101626.22;4860358;29;20037;-94
2021/11/15 01:36:51;;;;;;;29.55;17.58;;;;;;;15.28;66.17;101625.06;4859196;29;20429;-94
2021/11/15 01:39:16;;;;;;;28.02;18.92;;;;;;;15.30;65.91;101623.16;4860367;29;20462;-93
2021/11/15 01:41:41;;;;;;;29.85;17.98;;;;;;;15.30;65.96;101628.44;4860547;29;20037;-93
2021/11/15 01:44:07;;;;;;;32.60;18.25;;;;;;;15.24;65.56;101624.44;4860358;29;20128;-93
2021/11/15 01:46:33;;;;;;;28.05;18.33;;;;;;;15.18;65.90;101634.56;4859940;29;20064;-93
2021/11/15 01:48:58;;;;;;;32.75;19.85;;;;;;;15.28;65.36;101635.63;4860073;29;20162;-94
2021/11/15 01:51:23;;;;;;;27.33;18.70;;;;;;;15.28;65.72;101630.34;4860269;29;20036;-94
2021/11/15 01:53:49;;;;;;;29.50;18.55;;;;;;;15.33;65.70;101625.59;4859967;29;20038;-93
2021/11/15 01:56:15;;;;;;;25.10;17.45;;;;;;;15.30;65.80;101628.44;4860148;29;20033;-93
2021/11/15 01:58:41;;;;;;;33.05;19.00;;;;;;;15.22;66.15;101623.66;4860195;29;20040;-93
2021/11/15 02:01:07;;;;;;;30.52;19.20;;;;;;;15.29;66.02;101624.13;4860139;29;20097;-93
2021/11/15 02:03:32;;;;;;;25.48;18.13;;;;;;;15.18;65.90;101624.81;4859675;29;20093;-93
2021/11/15 02:05:59;;;;;;;27.60;17.60;;;;;;;15.20;66.34;101628.22;4860154;29;20025;-93
2021/11/15 02:08:25;;;;;;;27.77;16.98;;;;;;;15.23;65.95;101632.47;4860066;29;20086;-94
2021/11/15 02:10:51;;;;;;;27.83;17.10;;;;;;;15.23;66.29;101632.47;4860081;29;20054;-94
2021/11/15 02:13:18;;;;;;;23.02;15.93;;;;;;;15.24;65.83;101632.38;4859819;29;20018;-93
2021/11/15 02:15:45;;;;;;;27.13;15.77;;;;;;;15.26;66.30;101634.88;4858678;29;20025;-93
2021/11/15 02:18:11;;;;;;;28.30;17.58;;;;;;;15.25;66.16;101630.56;4858901;29;20029;-94
2021/11/15 02:20:52;;;;;;;26.92;16.10;;;;;;;15.03;66.71;101626.72;4858802;29;20065;-93
2021/11/15 02:23:19;;;;;;;22.25;15.43;;;;;;;15.02;66.89;101629.47;4858447;29;20029;-95
2021/11/15 02:25:46;;;;;;;24.67;16.63;;;;;;;15.40;65.85;101624.22;4859012;29;20514;-93
2021/11/15 02:28:12;;;;;;;24.45;16.13;;;;;;;15.51;65.16;101627.94;4859052;29;20069;-94
2021/11/15 02:30:38;;;;;;;24.20;16.30;;;;;;;15.50;65.42;101628.88;4858882;29;20113;-94
2021/11/15 02:33:04;;;;;;;25.10;16.88;;;;;;;15.45;65.24;101619.44;4858928;29;20033;-95
2021/11/15 02:35:30;;;;;;;22.90;15.73;;;;;;;15.26;65.78;101619.00;4858882;29;20033;-93
2021/11/15 02:37:56;;;;;;;26.10;15.68;;;;;;;15.43;65.80;101616.06;4858630;29;20032;-94
2021/11/15 02:40:25;;;;;;;23.08;16.63;;;;;;;15.33;65.36;101612.38;4858833;29;20036;-93
2021/11/15 02:42:51;;;;;;;27.15;15.55;;;;;;;15.22;66.20;101615.72;4858690;29;20512;-93
2021/11/15 02:45:18;;;;;;;23.30;15.43;;;;;;;15.27;65.92;101607.50;4858705;29;20029;-93
2021/11/15 02:47:44;;;;;;;23.85;15.73;;;;;;;15.12;66.29;101609.38;4858805;29;20033;-94
2021/11/15 02:50:13;;;;;;;23.10;16.75;;;;;;;15.02;66.88;101593.28;4858729;29;20022;-93
2021/11/15 02:52:43;;;;;;;34.67;17.90;;;;;;;15.25;65.95;101598.81;4858765;29;20026;-93
2021/11/15 02:55:09;;;;;;;31.02;20.10;;;;;;;15.30;65.63;101607.28;4858626;29;20041;-93
2021/11/15 02:57:34;;;;;;;31.60;18.52;;;;;;;15.40;65.52;101607.47;4858567;29;20026;-93
2021/11/15 02:59:59;;;;;;;27.85;18.52;;;;;;;15.36;65.31;101604.19;4857593;29;20106;-93
2021/11/15 03:02:25;;;;;;;26.25;18.73;;;;;;;15.32;65.83;101605.38;4858617;29;20064;-93
2021/11/15 03:04:51;;;;;;;29.80;18.38;;;;;;;15.37;65.87;101594.47;4858310;29;20385;-93
2021/11/15 03:07:17;;;;;;;32.45;19.92;;;;;;;15.26;65.09;101597.84;4858412;29;20459;-93
2021/11/15 03:09:42;;;;;;;28.90;18.85;;;;;;;15.40;65.23;101592.47;4858659;29;20105;-92
2021/11/15 03:12:08;;;;;;;30.58;19.45;;;;;;;15.47;65.40;101603.47;4858497;29;20036;-93
2021/11/15 03:14:35;;;;;;;26.45;18.65;;;;;;;15.36;65.66;101601.53;4858572;29;20113;-93
2021/11/15 03:17:01;;;;;;;29.75;19.30;;;;;;;15.41;65.07;101602.09;4857405;29;20057;-93
2021/11/15 03:19:26;;;;;;;28.95;19.50;;;;;;;15.24;65.28;101602.41;4821191;29;1133947;-93
2021/11/15 03:21:51;;;;;;;30.50;20.42;;;;;;;15.24;65.66;101603.28;4858516;29;20508;-92
2021/11/15 03:24:17;;;;;;;29.30;19.25;;;;;;;15.03;66.31;101610.84;4859136;29;20026;-93
2021/11/15 03:26:42;;;;;;;25.77;18.50;;;;;;;15.10;66.26;101605.16;4859098;29;20037;-92
2021/11/15 03:29:08;;;;;;;32.00;20.25;;;;;;;15.26;65.95;101605.78;4858057;29;20116;-93
2021/11/15 03:31:35;;;;;;;28.30;18.02;;;;;;;15.36;65.69;101616.59;4858100;29;20024;-93
2021/11/15 03:34:13;;;;;;;30.05;19.27;;;;;;;15.27;65.83;101618.09;4860959;29;20034;-93
2021/11/15 03:36:41;;;;;;;28.65;18.83;;;;;;;15.18;65.96;101613.41;4862626;29;20035;-92
2021/11/15 03:39:08;;;;;;;23.65;17.52;;;;;;;15.11;66.11;101604.22;4862659;29;20060;-93
2021/11/15 03:41:37;;;;;;;29.65;20.17;;;;;;;14.96;66.45;101599.00;4862660;29;20298;-93
2021/11/15 03:44:04;;;;;;;26.77;17.88;;;;;;;15.18;65.89;101590.44;4862430;29;20037;-93
2021/11/15 03:46:29;;;;;;;30.95;20.40;;;;;;;15.13;65.90;101589.09;4862514;29;20026;-93
2021/11/15 03:48:55;;;;;;;27.73;19.70;;;;;;;15.11;66.02;101583.06;4862030;29;20549;-93
2021/11/15 03:51:21;;;;;;;31.27;18.92;;;;;;;14.86;66.82;101587.34;4862238;29;20033;-93
2021/11/15 03:53:47;;;;;;;30.73;19.05;;;;;;;14.87;66.43;101578.47;4861967;29;20033;-93
2021/11/15 03:56:17;;;;;;;28.23;19.40;;;;;;;14.90;66.37;101572.97;4862062;29;20030;-94
2021/11/15 03:58:45;;;;;;;28.70;18.23;;;;;;;14.95;66.22;101581.44;4862329;29;20120;-94
2021/11/15 04:01:12;;;;;;;26.27;17.63;;;;;;;14.99;65.99;101567.06;4860270;29;20098;-93
2021/11/15 04:03:40;;;;;;;32.40;20.70;;;;;;;14.70;66.81;101571.66;4861896;29;20025;-94
2021/11/15 04:06:24;;;;;;;28.17;19.65;;;;;;;14.67;67.08;101574.50;4862160;29;20026;-93
2021/11/15 04:08:51;;;;;;;28.52;18.50;;;;;;;14.53;66.93;101575.38;4861432;29;20037;-93
2021/11/15 04:11:19;;;;;;;34.33;21.80;;;;;;;14.44;67.60;101573.38;4861747;29;20029;-93
2021/11/15 04:13:47;;;;;;;29.58;19.35;;;;;;;14.44;67.38;101576.84;4861865;29;20030;-93
2021/11/15 04:16:15;;;;;;;29.45;19.45;;;;;;;14.41;68.06;101581.47;4861808;29;20073;-94
2021/11/15 04:18:45;;;;;;;30.98;19.35;;;;;;;14.44;67.61;101582.13;4861685;29;20033;-95
2021/11/15 04:21:12;;;;;;;28.85;18.92;;;;;;;14.44;67.27;101586.56;4862036;29;20109;-94
2021/11/15 04:23:38;;;;;;;28.35;19.27;;;;;;;14.48;67.38;101588.91;4861865;29;20037;-94
2021/11/15 04:26:04;;;;;;;33.47;20.05;;;;;;;14.40;67.27;101585.91;4861364;29;20396;-95
2021/11/15 04:28:29;;;;;;;35.70;20.40;;;;;;;14.41;67.26;101592.03;4861222;29;20044;-94
2021/11/15 04:30:55;;;;;;;35.78;21.17;;;;;;;14.26;67.19;101599.19;4861573;29;20033;-94
2021/11/15 04:33:23;;;;;;;32.75;19.83;;;;;;;14.22;67.36;101593.25;4861524;29;20037;-93
2021/11/15 04:35:49;;;;;;;33.40;20.17;;;;;;;14.23;67.46;101594.94;4861840;29;20388;-94
2021/11/15 04:38:15;;;;;;;29.38;20.45;;;;;;;14.24;67.60;101594.00;4861659;29;20487;-94
2021/11/15 04:40:41;;;;;;;33.85;19.20;;;;;;;14.28;67.14;101598.13;4861140;29;20033;-94
2021/11/15 04:43:07;;;;;;;29.92;18.40;;;;;;;14.29;67.41;101596.34;4861635;29;20125;-93
2021/11/15 04:45:32;;;;;;;31.42;19.77;;;;;;;14.19;67.52;101597.88;4860893;29;20497;-93
2021/11/15 04:47:58;;;;;;;30.92;20.30;;;;;;;14.18;67.34;101601.44;4861221;29;20177;-93
2021/11/15 04:50:24;;;;;;;33.22;21.70;;;;;;;14.19;67.47;101593.44;4861396;29;20029;-94
2021/11/15 04:52:50;;;;;;;31.95;20.58;;;;;;;14.19;67.33;101604.00;4861232;29;20033;-93
2021/11/15 04:55:18;;;;;;;35.53;22.13;;;;;;;14.14;67.17;101606.09;4860748;29;20033;-93
2021/11/15 04:57:44;;;;;;;34.72;21.67;;;;;;;14.08;67.73;101601.22;4861191;29;20465;-94
2021/11/15 05:00:18;;;;;;;34.85;22.02;;;;;;;14.12;67.69;101601.84;4861224;29;20045;-94
2021/11/15 05:02:45;;;;;;;41.60;22.95;;;;;;;14.04;67.95;101595.28;4842644;29;20535;-93
2021/11/15 05:05:11;;;;;;;41.10;21.60;;;;;;;14.07;67.81;101594.22;4842744;29;20033;-94
2021/11/15 05:07:36;;;;;;;31.25;21.02;;;;;;;14.05;68.14;101594.31;4842549;29;20052;-93
2021/11/15 05:10:03;;;;;;;33.97;20.40;;;;;;;13.97;67.62;101593.97;4854305;29;20033;-92
2021/11/15 05:12:32;;;;;;;30.73;20.35;;;;;;;13.96;68.19;101594.06;4861310;29;20037;-94
2021/11/15 05:14:58;;;;;;;31.58;19.10;;;;;;;13.94;67.84;101604.72;4861043;29;20052;-93
2021/11/15 05:17:23;;;;;;;29.88;18.98;;;;;;;13.92;67.74;101611.03;4860961;29;20472;-93
2021/11/15 05:19:49;;;;;;;29.77;19.48;;;;;;;13.85;67.93;101603.50;4860302;29;20504;-93
2021/11/15 05:22:15;;;;;;;34.63;20.52;;;;;;;13.89;67.63;101610.28;4860685;29;20061;-93
2021/11/15 05:24:40;;;;;;;31.42;20.45;;;;;;;13.79;67.56;101603.88;4860854;29;20104;-93
2021/11/15 05:27:06;;;;;;;28.42;18.98;;;;;;;13.77;67.58;101607.56;4860682;29;20053;-94
2021/11/15 05:29:31;;;;;;;30.05;18.02;;;;;;;13.71;67.61;101603.53;4861036;29;20034;-93
2021/11/15 05:31:57;;;;;;;28.08;18.30;;;;;;;13.68;67.83;101601.06;4860258;29;20033;-92
2021/11/15 05:34:22;;;;;;;30.13;19.48;;;;;;;13.64;67.83;101597.75;4860680;29;20033;-93
2021/11/15 05:36:48;;;;;;;31.95;20.30;;;;;;;13.62;67.43;101604.09;4860778;29;20488;-93
2021/11/15 05:39:13;;;;;;;33.22;18.65;;;;;;;13.61;67.39;101599.75;4860479;29;20545;-93
2021/11/15 05:41:38;;;;;;;30.63;17.58;;;;;;;13.48;67.74;101595.22;4860347;29;20442;-93
2021/11/15 05:44:04;;;;;;;27.80;18.38;;;;;;;13.52;67.30;101602.97;4859173;29;20116;-93
2021/11/15 05:46:31;;;;;;;28.45;17.98;;;;;;;13.46;67.76;101605.00;4859824;29;20549;-93
2021/11/15 05:48:56;;;;;;;29.20;17.55;;;;;;;13.47;67.20;101614.63;4860118;29;20022;-93
2021/11/15 05:51:22;;;;;;;28.80;18.63;;;;;;;13.60;66.78;101606.81;4860355;29;20098;-93
2021/11/15 05:53:47;;;;;;;27.73;17.63;;;;;;;13.68;66.91;101606.34;4860147;29;20053;-93
2021/11/15 05:56:13;;;;;;;29.67;18.95;;;;;;;13.67;66.65;101608.13;4859894;29;20081;-93
2021/11/15 05:58:39;;;;;;;29.20;19.65;;;;;;;13.67;66.70;101609.94;4859621;29;20033;-93
2021/11/15 06:01:05;;;;;;;29.90;18.33;;;;;;;13.47;67.19;101619.91;4859562;29;20216;-92
2021/11/15 06:03:30;;;;;;;28.00;17.50;;;;;;;13.52;67.09;101610.88;4859620;29;20449;-93
2021/11/15 06:05:56;;;;;;;25.48;17.17;;;;;;;13.53;66.61;101609.94;4859977;29;20385;-93
2021/11/15 06:08:21;;;;;;;24.38;18.25;;;;;;;13.52;66.49;101605.59;4860124;29;20030;-94
2021/11/15 06:10:47;;;;;;;30.70;18.65;;;;;;;13.40;66.19;101605.38;4860109;29;20472;-93
2021/11/15 06:13:13;;;;;;;30.00;18.85;;;;;;;13.50;65.66;101608.31;4860120;29;20033;-94
2021/11/15 06:15:38;;;;;;;26.30;16.25;;;;;;;13.44;66.11;101606.91;4859170;29;20066;-93
2021/11/15 06:18:04;;;;;;;26.38;17.48;;;;;;;13.26;66.47;101616.75;4859468;29;20030;-93
2021/11/15 06:20:30;;;;;;;23.77;15.93;;;;;;;13.29;66.75;101618.38;4859921;29;20040;-93
2021/11/15 06:22:55;;;;;;;25.88;15.52;;;;;;;13.47;66.31;101617.28;4859798;29;20067;-93
2021/11/15 06:25:21;;;;;;;27.13;17.08;;;;;;;13.38;66.04;101620.47;4859842;29;20037;-94
2021/11/15 06:27:47;;;;;;;23.88;15.20;;;;;;;13.33;66.37;101625.19;4859967;29;20036;-93
2021/11/15 06:30:16;;;;;;;21.67;14.13;;;;;;;13.29;66.19;101621.88;4859562;29;20033;-94
2021/11/15 06:32:42;;;;;;;27.30;16.25;;;;;;;13.19;66.00;101625.13;4858889;29;20090;-93
2021/11/15 06:35:08;;;;;;;21.85;14.48;;;;;;;13.23;66.58;101622.22;4859752;29;20034;-94
2021/11/15 06:37:34;;;;;;;26.55;15.65;;;;;;;13.17;66.35;101627.00;4859619;29;20061;-94
2021/11/15 06:40:00;;;;;;;29.42;17.15;;;;;;;13.15;66.20;101628.88;4858414;29;20067;-93
2021/11/15 06:42:25;;;;;;;29.23;17.30;;;;;;;13.17;66.38;101630.50;4858306;29;20037;-94
2021/11/15 06:44:50;;;;;;;27.83;16.98;;;;;;;13.22;66.54;101633.69;4859624;29;20030;-94
2021/11/15 06:47:16;;;;;;;24.52;15.93;;;;;;;13.18;66.86;101641.88;4859510;29;20041;-93
2021/11/15 06:49:41;;;;;;;27.42;17.20;;;;;;;13.24;67.14;101628.34;4859892;29;20369;-94
2021/11/15 06:52:07;;;;;;;30.17;18.02;;;;;;;13.14;66.57;101625.41;4859708;29;20177;-94
2021/11/15 06:54:32;;;;;;;32.33;18.38;;;;;;;13.20;67.35;101634.72;4859873;29;20026;-94
2021/11/15 06:56:58;;;;;;;29.58;17.08;;;;;;;13.27;67.05;101633.44;4859731;29;20037;-93
2021/11/15 06:59:23;;;;;;;23.98;15.95;;;;;;;13.31;67.13;101644.66;4859467;29;20113;-94
2021/11/15 07:01:49;;;;;;;26.65;16.25;;;;;;;13.36;66.67;101638.19;4858818;29;20030;-94
2021/11/15 07:04:14;;;;;;;25.45;15.90;;;;;;;13.41;66.99;101649.31;4859458;29;20025;-94
2021/11/15 07:06:42;;;;;;;26.67;16.17;;;;;;;13.44;66.81;101643.84;4858879;29;20057;-91
2021/11/15 07:09:08;;;;;;;28.63;14.88;;;;;;;13.51;66.81;101641.69;4861343;29;20033;-91
2021/11/15 07:11:34;;;;;;;29.23;17.90;;;;;;;13.52;67.00;101645.16;4862884;29;20049;-91
2021/11/15 07:14:01;;;;;;;28.20;17.23;;;;;;;13.57;66.74;101638.69;4862844;29;20484;-93
2021/11/15 07:16:27;;;;;;;33.42;17.88;;;;;;;13.65;67.11;101643.50;4862719;29;20034;-92
2021/11/15 07:18:53;;;;;;;33.85;19.17;;;;;;;13.69;67.26;101650.28;4862743;29;20033;-92
2021/11/15 07:21:22;;;;;;;34.40;19.60;;;;;;;13.71;67.11;101650.19;4862901;29;20032;-93
2021/11/15 07:23:49;;;;;;;31.73;19.17;;;;;;;13.72;67.40;101651.88;4862868;29;20109;-93
2021/11/15 07:26:15;;;;;;;35.03;19.95;;;;;;;13.74;67.89;101653.47;4862715;29;20034;-93
2021/11/15 07:28:41;;;;;;;35.45;19.83;;;;;;;13.78;67.30;101662.88;4862620;29;20041;-92
2021/11/15 07:31:06;;;;;;;40.83;19.95;;;;;;;13.80;67.61;101660.16;4862690;29;20053;-93
2021/11/15 07:33:32;;;;;;;36.67;19.38;;;;;;;13.81;67.31;101668.00;4862039;29;20025;-93
2021/11/15 07:35:57;;;;;;;32.53;18.92;;;;;;;13.69;67.90;101663.47;4861230;29;20033;-93
2021/11/15 07:38:23;;;;;;;31.13;19.90;;;;;;;13.83;67.94;101668.75;4861168;29;20135;-93
2021/11/15 07:40:50;;;;;;;33.88;19.60;;;;;;;13.92;67.60;101664.72;4861343;29;20029;-92
2021/11/15 07:43:15;;;;;;;35.47;18.75;;;;;;;13.97;67.67;101672.34;4861048;29;20034;-93
2021/11/15 07:45:43;;;;;;;28.65;17.67;;;;;;;14.02;67.60;101673.75;4860882;29;20051;-93
2021/11/15 07:48:09;;;;;;;28.95;18.50;;;;;;;14.04;67.70;101678.91;4860865;29;20029;-90
2021/11/15 07:50:35;;;;;;;35.05;19.35;;;;;;;14.13;67.58;101678.34;4859826;29;20028;-90
2021/11/15 07:53:01;;;;;;;38.78;21.02;;;;;;;14.19;67.91;101677.97;4860484;29;20404;-91
2021/11/15 07:55:26;;;;;;;31.70;19.25;;;;;;;14.20;67.70;101679.66;4859170;29;20032;-90
2021/11/15 07:57:52;;;;;;;37.13;19.92;;;;;;;14.26;67.90;101674.00;4859682;29;20044;-91
2021/11/15 08:00:21;;;;;;;38.28;20.70;;;;;;;14.28;67.73;101676.56;4857983;29;20029;-89
2021/11/15 08:02:48;;;;;;;34.25;20.50;;;;;;;14.35;67.52;101682.28;4860531;29;20045;-90
2021/11/15 08:05:16;;;;;;;35.90;17.98;;;;;;;14.41;67.70;101671.31;4859975;29;20393;-90
2021/11/15 08:07:42;;;;;;;45.90;21.40;;;;;;;14.41;67.10;101687.16;4860524;29;20037;-90
2021/11/15 08:10:10;;;;;;;27.50;16.92;;;;;;;14.31;67.91;101686.06;4857497;29;20034;-90
2021/11/15 08:12:39;;;;;;;24.60;15.70;;;;;;;14.39;67.65;101692.53;4858347;29;20033;-91
2021/11/15 08:15:07;;;;;;;20.80;14.15;;;;;;;14.48;67.76;101684.03;4860624;29;20030;-91
2021/11/15 08:17:35;;;;;;;21.70;12.85;;;;;;;14.52;67.51;101684.69;4860447;29;20038;-91
2021/11/15 08:20:02;;;;;;;22.08;14.05;;;;;;;14.43;67.23;101685.28;4859251;29;20038;-90
2021/11/15 08:22:27;;;;;;;20.35;13.20;;;;;;;14.47;67.51;101686.78;4861065;29;20532;-90
2021/11/15 08:24:53;;;;;;;22.88;15.02;;;;;;;14.50;67.60;101697.16;4860728;29;20037;-88
2021/11/15 08:27:19;;;;;;;20.80;14.02;;;;;;;14.48;67.65;101693.78;4867983;29;20039;-89
2021/11/15 08:29:45;;;;;;;24.15;15.65;;;;;;;14.45;67.75;101696.59;4861396;29;20033;-89
2021/11/15 08:32:13;;;;;;;35.80;13.63;;;;;;;14.42;67.26;101702.09;4866801;29;20025;-91
2021/11/15 08:34:39;;;;;;;27.20;14.95;;;;;;;14.40;67.87;101701.34;4860188;29;20112;-91
2021/11/15 08:37:05;;;;;;;19.83;13.05;;;;;;;14.54;67.91;101697.81;4863227;29;20438;-89
2021/11/15 08:39:32;;;;;;;22.13;13.05;;;;;;;14.62;67.53;101699.03;4858457;29;20041;-90
2021/11/15 08:42:01;;;;;;;21.33;13.20;;;;;;;14.63;67.33;101700.75;4860188;29;20441;-89
2021/11/15 08:44:28;;;;;;;19.23;13.13;;;;;;;14.64;67.74;101704.25;4860688;29;20040;-90
2021/11/15 08:46:55;;;;;;;22.08;13.20;;;;;;;14.71;67.79;101710.84;4859754;29;20035;-90
2021/11/15 08:49:25;;;;;;;20.48;13.10;;;;;;;14.48;68.04;101725.47;4860633;29;20040;-89
2021/11/15 08:51:51;;;;;;;24.17;12.45;;;;;;;14.54;67.85;101725.09;4859557;29;20033;-90
2021/11/15 08:54:18;;;;;;;17.02;11.15;;;;;;;14.55;68.33;101716.19;4859941;29;20108;-90
2021/11/15 08:56:46;;;;;;;26.60;12.13;;;;;;;14.68;67.48;101721.59;4857910;29;20441;-90
2021/11/15 08:59:12;;;;;;;17.27;11.85;;;;;;;14.86;67.62;101716.91;4861037;29;20030;-91
2021/11/15 09:01:39;;;;;;;16.88;11.57;;;;;;;14.90;67.07;101709.63;4861465;29;20087;-92
2021/11/15 09:04:06;;;;;;;20.05;11.60;;;;;;;14.92;67.15;101702.44;4861485;29;20124;-91
2021/11/15 09:06:34;;;;;;;15.02;11.23;;;;;;;14.97;66.93;101698.56;4861785;29;20086;-92
2021/11/15 09:09:00;;;;;;;13.85;10.20;;;;;;;14.98;66.01;101699.38;4843323;29;20037;-92
2021/11/15 09:11:25;;;;;;;16.10;11.65;;;;;;;14.99;66.72;101694.00;4862806;29;20041;-92
2021/11/15 09:13:51;;;;;;;26.25;11.02;;;;;;;14.76;65.92;101692.03;4866218;29;20088;-90
2021/11/15 09:16:17;;;;;;;17.08;11.55;;;;;;;14.94;66.84;101696.09;4860997;29;20081;-92
2021/11/15 09:18:43;;;;;;;14.93;9.82;;;;;;;14.89;66.25;101692.94;4862200;29;20500;-91
2021/11/15 09:21:10;;;;;;;18.95;12.20;;;;;;;14.91;66.69;101698.09;4862112;29;20034;-93
2021/11/15 09:23:39;;;;;;;23.90;10.40;;;;;;;14.90;66.13;101705.19;4859072;29;20105;-93
2021/11/15 09:26:06;;;;;;;17.70;11.25;;;;;;;14.96;66.40;101704.78;4859382;29;20037;-93
2021/11/15 09:28:31;;;;;;;15.50;10.27;;;;;;;15.10;66.43;101718.91;4861733;29;20069;-92
2021/11/15 09:30:58;;;;;;;16.70;11.13;;;;;;;15.10;66.81;101719.72;4858949;29;20146;-90
2021/11/15 09:33:23;;;;;;;14.23;9.48;;;;;;;15.07;66.50;101717.31;4860869;29;20496;-92
2021/11/15 09:35:49;;;;;;;15.77;11.60;;;;;;;14.99;66.65;101719.63;4858565;29;20108;-93
2021/11/15 09:38:17;;;;;;;13.55;10.50;;;;;;;15.15;65.95;101714.16;4862588;29;20041;-92
2021/11/15 09:40:43;;;;;;;16.83;10.70;;;;;;;15.07;66.13;101712.03;4862208;29;20036;-91
2021/11/15 09:43:09;;;;;;;21.23;12.50;;;;;;;15.18;66.32;101714.78;4860160;29;20693;-90
2021/11/15 09:45:35;;;;;;;16.63;11.98;;;;;;;15.18;65.76;101703.34;4860397;29;20469;-91
2021/11/15 09:48:00;;;;;;;14.02;10.73;;;;;;;15.18;66.37;101708.66;4861585;29;20086;-92
2021/11/15 09:50:26;;;;;;;14.45;10.30;;;;;;;15.17;66.26;101710.44;4861911;29;20036;-91
2021/11/15 09:52:52;;;;;;;17.10;10.35;;;;;;;15.26;65.96;101707.22;4861115;29;20029;-91
2021/11/15 09:55:18;;;;;;;16.00;10.95;;;;;;;15.25;65.66;101708.13;4861306;29;20033;-91
2021/11/15 09:57:46;;;;;;;14.00;9.45;;;;;;;15.31;65.72;101712.19;4859714;29;20030;-90
2021/11/15 10:00:16;;;;;;;14.63;9.52;;;;;;;15.33;65.23;101712.91;4859824;29;20128;-92
2021/11/15 10:02:43;;;;;;;19.70;11.70;;;;;;;15.30;65.34;101723.69;4859561;29;20437;-90
2021/11/15 10:05:10;;;;;;;15.32;9.43;;;;;;;15.39;64.49;101717.78;4859835;29;20022;-90
2021/11/15 10:07:48;;;;;;;21.63;10.63;;;;;;;15.49;64.83;101719.84;4858497;29;20033;-91
2021/11/15 10:10:45;;;;;;;24.25;9.82;;;;;;;15.51;64.54;101715.28;4851278;29;20037;-92
2021/11/15 10:13:29;;;;;;;21.05;10.52;;;;;;;15.59;65.36;101720.91;4850463;29;20046;-91
2021/11/15 10:16:06;;;;;;;14.27;9.73;;;;;;;15.75;64.49;101721.56;4858556;29;20112;-90
2021/11/15 10:18:35;;;;;;;14.95;9.25;;;;;;;15.73;64.02;101718.19;4860119;29;20029;-89
2021/11/15 10:21:07;;;;;;;18.70;9.35;;;;;;;15.63;62.22;101720.56;4860509;29;20495;-92
2021/11/15 10:23:33;;;;;;;14.05;9.68;;;;;;;15.75;63.93;101713.63;4858186;29;20033;-91
2021/11/15 10:26:00;;;;;;;23.13;9.85;;;;;;;15.85;64.01;101717.31;4860413;29;20029;-93
2021/11/15 10:28:27;;;;;;;18.83;9.68;;;;;;;15.64;63.71;101710.84;4858029;29;20041;-91
2021/11/15 10:30:53;;;;;;;16.60;9.98;;;;;;;15.74;64.46;101716.38;4860569;29;20085;-91
2021/11/15 10:33:19;;;;;;;15.95;9.57;;;;;;;15.92;63.83;101699.22;4863625;29;20369;-93
2021/11/15 10:35:49;;;;;;;14.65;9.82;;;;;;;15.99;64.36;101704.91;4860332;29;20041;-92
2021/11/15 10:38:15;;;;;;;15.05;10.02;;;;;;;15.99;64.13;101708.41;4859728;29;20030;-93
2021/11/15 10:40:40;;;;;;;18.83;10.80;;;;;;;15.96;63.76;101710.44;4859318;29;20481;-92
2021/11/15 10:43:08;;;;;;;15.07;9.68;;;;;;;16.09;63.77;101707.78;4858969;29;20029;-91
2021/11/15 10:45:36;;;;;;;13.68;9.68;;;;;;;16.08;63.11;101706.09;4859992;29;20037;-90
2021/11/15 10:48:06;;;;;;;13.45;9.48;;;;;;;16.16;63.59;101701.94;4859775;29;20044;-92
2021/11/15 10:50:52;;;;;;;14.80;9.60;;;;;;;16.13;63.59;101702.13;4860107;29;20155;-90
2021/11/15 10:53:33;;;;;;;14.10;9.57;;;;;;;16.28;63.41;101694.06;4859974;29;20112;-93
2021/11/15 10:56:21;;;;;;;15.93;10.15;;;;;;;16.30;63.47;101700.09;4860320;29;20053;-92
2021/11/15 10:58:51;;;;;;;16.10;9.68;;;;;;;16.20;63.00;101703.41;4858029;29;20163;-92
2021/11/15 11:01:19;;;;;;;14.23;9.82;;;;;;;16.38;62.91;101700.41;4859423;29;20033;-92
2021/11/15 11:03:45;;;;;;;11.55;7.93;;;;;;;16.45;63.14;101706.97;4860273;29;20048;-92
2021/11/15 11:06:16;;;;;;;15.48;10.18;;;;;;;16.41;62.92;101710.78;4858999;29;20061;-91
2021/11/15 11:08:49;;;;;;;14.10;9.15;;;;;;;16.50;62.80;101712.75;4851059;29;20440;-90